Terminal Aerodrome Forecast
Issued by NWS Cleveland, OH

Home | Current Version | Previous Version | Graphics & Text | Print | Product List | Glossary On
Versions: 1 2 3 4 5 6 7 8 9 10 11 12 13 14 15 16 17 18 19 20 21 22 23 24
000
FTUS41 KCLE 162048 AAB
TAFCLE
TAF AMD
KCLE 162048Z 1621/1724 27007KT P6SM OVC035
     FM162200 VRB03KT P6SM SCT035 OVC250
     FM170000 VRB03KT P6SM OVC250
     FM170700 14004KT P6SM BKN070
     FM171000 18008KT P6SM BKN250=

USA.gov is the U.S. government's official web portal to all federal, state and local government web resources and services.